createdAt,value
2019-01-29T00:01:40.203Z,3.35
2019-01-29T00:04:42.143Z,3.44
2019-01-29T00:07:44.219Z,3.54
2019-01-29T00:10:46.173Z,3.59
2019-01-29T00:13:48.340Z,3.65
2019-01-29T00:16:50.317Z,3.72
2019-01-29T00:19:52.197Z,3.80
2019-01-29T00:22:54.115Z,3.83
2019-01-29T00:25:56.020Z,3.87
2019-01-29T00:28:57.980Z,3.88
2019-01-29T00:32:08.735Z,3.90
2019-01-29T00:35:11.027Z,3.96
2019-01-29T00:38:13.043Z,3.99
2019-01-29T00:41:14.979Z,4.03
2019-01-29T00:44:16.839Z,3.99
2019-01-29T00:47:18.803Z,3.97
2019-01-29T00:50:20.792Z,4.02
2019-01-29T00:53:22.730Z,4.06
2019-01-29T00:56:24.710Z,4.09
2019-01-29T00:59:27.349Z,4.10
2019-01-29T01:02:29.486Z,4.09
2019-01-29T01:05:31.454Z,4.13
2019-01-29T01:08:33.456Z,4.10
2019-01-29T01:11:35.370Z,4.14
2019-01-29T01:14:37.387Z,4.15
2019-01-29T01:17:39.311Z,4.22
2019-01-29T01:20:41.264Z,4.27
2019-01-29T01:23:43.195Z,4.24
2019-01-29T01:26:45.228Z,4.22
2019-01-29T01:29:47.110Z,4.19
2019-01-29T01:32:49.011Z,4.16
2019-01-29T01:35:51.103Z,4.13
2019-01-29T01:38:53.101Z,4.12
2019-01-29T01:41:55.078Z,4.06
2019-01-29T01:44:56.983Z,3.99
2019-01-29T01:47:58.988Z,3.90
2019-01-29T01:51:00.883Z,3.75
2019-01-29T01:54:02.842Z,3.75
2019-01-29T01:57:04.797Z,3.79
2019-01-29T02:00:12.906Z,3.80
2019-01-29T02:03:14.862Z,3.73
2019-01-29T02:06:16.832Z,3.65
2019-01-29T02:09:18.901Z,3.59
2019-01-29T02:12:20.822Z,3.50
2019-01-29T02:15:22.948Z,3.40
2019-01-29T02:18:24.884Z,3.23
2019-01-29T02:21:26.778Z,3.20
2019-01-29T02:24:28.798Z,3.08
2019-01-29T02:27:30.702Z,3.06
2019-01-29T02:30:32.747Z,3.12
2019-01-29T02:33:34.663Z,3.27
2019-01-29T02:36:36.842Z,3.35
2019-01-29T02:39:38.778Z,3.48
2019-01-29T02:42:40.754Z,3.63
2019-01-29T02:45:42.672Z,3.79
2019-01-29T02:48:44.671Z,3.89
2019-01-29T02:51:46.581Z,3.91
2019-01-29T02:54:48.545Z,3.95
2019-01-29T02:57:50.527Z,3.97
2019-01-29T03:00:52.463Z,3.99
2019-01-29T03:03:54.462Z,4.00
2019-01-29T03:06:56.436Z,4.03
2019-01-29T03:09:58.429Z,4.01
2019-01-29T03:13:00.361Z,4.00
2019-01-29T03:16:02.316Z,3.99
2019-01-29T03:19:04.326Z,3.96
2019-01-29T03:22:06.360Z,3.97
2019-01-29T03:25:10.496Z,3.85
2019-01-29T03:28:12.432Z,3.85
2019-01-29T03:31:14.431Z,3.87
2019-01-29T03:34:16.362Z,3.91
2019-01-29T03:37:18.477Z,4.01
2019-01-29T03:40:22.919Z,4.05
2019-01-29T03:43:24.875Z,4.08
2019-01-29T03:46:26.870Z,4.07
2019-01-29T03:49:29.978Z,4.07
2019-01-29T03:52:31.931Z,4.07
2019-01-29T03:55:33.944Z,4.14
2019-01-29T03:58:35.953Z,4.19
2019-01-29T04:01:39.432Z,4.19
2019-01-29T04:04:41.387Z,4.20
2019-01-29T04:07:43.503Z,4.21
2019-01-29T04:10:45.453Z,4.27
2019-01-29T04:13:47.393Z,4.34
2019-01-29T04:16:49.277Z,4.37
2019-01-29T04:19:51.216Z,4.38
2019-01-29T04:22:53.123Z,4.36
2019-01-29T04:25:55.119Z,4.33
2019-01-29T04:28:57.003Z,4.33
2019-01-29T04:31:59.691Z,4.38
2019-01-29T04:35:01.747Z,4.38
2019-01-29T04:38:03.940Z,4.32
2019-01-29T04:41:05.858Z,4.26
2019-01-29T04:44:07.858Z,4.29
2019-01-29T04:47:09.794Z,4.34
2019-01-29T04:50:19.298Z,4.40
2019-01-29T04:53:21.273Z,4.45
2019-01-29T04:56:23.252Z,4.37
2019-01-29T04:59:25.197Z,4.51
2019-01-29T05:02:28.981Z,4.56
2019-01-29T05:05:30.902Z,4.54
2019-01-29T05:08:32.966Z,4.58
2019-01-29T05:11:35.063Z,4.58
2019-01-29T05:14:37.029Z,4.55
2019-01-29T05:17:38.943Z,4.58
2019-01-29T05:20:40.925Z,4.63
2019-01-29T05:23:42.843Z,4.66
2019-01-29T05:26:44.821Z,4.68
2019-01-29T05:29:46.758Z,4.65
2019-01-29T05:32:48.781Z,4.62
2019-01-29T05:35:50.786Z,4.62
2019-01-29T05:38:52.954Z,4.66
2019-01-29T05:41:54.966Z,4.57
2019-01-29T05:44:56.898Z,4.51
2019-01-29T05:47:58.855Z,4.46
2019-01-29T05:51:00.756Z,4.46
2019-01-29T05:54:03.368Z,4.48
2019-01-29T05:57:05.332Z,4.45
2019-01-29T06:00:10.883Z,4.47
2019-01-29T06:03:13.397Z,4.46
2019-01-29T06:06:15.288Z,4.42
2019-01-29T06:09:17.355Z,4.43
2019-01-29T06:12:19.268Z,4.44
2019-01-29T06:15:23.262Z,4.41
2019-01-29T06:18:25.228Z,4.40
2019-01-29T06:21:27.210Z,4.38
2019-01-29T06:24:29.185Z,4.27
2019-01-29T06:27:32.799Z,4.16
2019-01-29T06:30:34.837Z,4.06
2019-01-29T06:33:36.839Z,4.01
2019-01-29T06:36:38.838Z,3.99
2019-01-29T06:39:40.920Z,4.05
2019-01-29T06:42:42.848Z,4.04
2019-01-29T06:45:44.793Z,4.06
2019-01-29T06:48:46.732Z,4.07
2019-01-29T06:51:48.684Z,4.12
2019-01-29T06:54:50.829Z,4.09
2019-01-29T06:57:55.416Z,4.09
2019-01-29T07:00:56.584Z,4.10
2019-01-29T07:03:59.190Z,4.07
2019-01-29T07:07:01.101Z,4.00
2019-01-29T07:10:06.773Z,4.00
2019-01-29T07:13:08.712Z,3.95
2019-01-29T07:16:12.764Z,3.91
2019-01-29T07:19:16.843Z,3.99
2019-01-29T07:22:18.854Z,3.93
2019-01-29T07:25:20.798Z,3.97
2019-01-29T07:28:23.039Z,3.96
2019-01-29T07:31:26.154Z,3.89
2019-01-29T07:34:28.118Z,3.88
2019-01-29T07:37:30.136Z,3.91
2019-01-29T07:40:32.362Z,3.96
2019-01-29T07:43:34.404Z,4.02
2019-01-29T07:46:36.366Z,4.07
2019-01-29T07:49:38.371Z,4.11
2019-01-29T07:52:40.338Z,4.12
2019-01-29T07:55:42.238Z,4.14
2019-01-29T07:58:45.222Z,4.11
2019-01-29T08:01:47.171Z,4.08
2019-01-29T08:04:49.750Z,4.12
2019-01-29T08:07:51.690Z,4.16
2019-01-29T08:10:53.735Z,4.16
2019-01-29T08:13:55.850Z,4.19
2019-01-29T08:16:57.839Z,4.23
2019-01-29T08:19:59.758Z,4.26
2019-01-29T08:23:01.770Z,4.23
2019-01-29T08:26:03.676Z,4.32
2019-01-29T08:29:05.665Z,4.34
2019-01-29T08:32:07.598Z,4.35
2019-01-29T08:35:14.369Z,4.36
2019-01-29T08:38:16.397Z,4.34
2019-01-29T08:41:20.005Z,4.28
2019-01-29T08:44:21.968Z,4.27
2019-01-29T08:47:23.890Z,4.26
2019-01-29T08:50:26.351Z,4.26
2019-01-29T08:53:28.259Z,4.18
2019-01-29T08:56:30.253Z,4.20
2019-01-29T08:59:38.887Z,4.13
2019-01-29T09:02:43.749Z,4.08
2019-01-29T09:05:45.804Z,4.07
2019-01-29T09:08:47.767Z,4.10
2019-01-29T09:11:49.749Z,4.15
2019-01-29T09:14:51.741Z,4.16
2019-01-29T09:17:53.687Z,4.15
2019-01-29T09:20:55.662Z,4.19
2019-01-29T09:23:57.564Z,4.13
2019-01-29T09:26:59.558Z,4.08
2019-01-29T09:30:01.548Z,4.08
2019-01-29T09:33:04.276Z,4.11
2019-01-29T09:36:06.181Z,4.14
2019-01-29T09:39:08.875Z,4.07
2019-01-29T09:42:11.109Z,4.14
2019-01-29T09:45:15.384Z,4.24
2019-01-29T09:48:18.450Z,4.32
2019-01-29T09:51:20.373Z,4.21
2019-01-29T09:54:22.311Z,4.14
2019-01-29T09:57:24.287Z,4.09
2019-01-29T10:00:32.303Z,4.03
2019-01-29T10:03:34.240Z,4.04
2019-01-29T10:06:36.202Z,4.10
2019-01-29T10:09:38.462Z,3.93
2019-01-29T10:12:40.603Z,3.87
2019-01-29T10:15:42.591Z,3.87
2019-01-29T10:18:44.527Z,3.91
2019-01-29T10:21:46.504Z,3.96
2019-01-29T10:24:49.810Z,3.89
2019-01-29T10:27:51.839Z,3.79
2019-01-29T10:30:53.802Z,3.84
2019-01-29T10:33:57.143Z,3.79
2019-01-29T10:36:59.161Z,3.67
2019-01-29T10:40:01.079Z,3.55
2019-01-29T10:43:03.599Z,3.41
2019-01-29T10:46:05.611Z,3.39
2019-01-29T10:49:07.566Z,3.62
2019-01-29T10:52:09.593Z,3.74
2019-01-29T10:55:11.562Z,3.87
2019-01-29T10:58:13.512Z,4.11
2019-01-29T11:01:15.439Z,4.46
2019-01-29T11:04:17.458Z,4.64
2019-01-29T11:07:19.366Z,4.56
2019-01-29T11:10:23.504Z,4.50
2019-01-29T11:13:25.511Z,4.42
2019-01-29T11:16:27.485Z,4.14
2019-01-29T11:19:29.468Z,3.97
2019-01-29T11:22:31.481Z,3.80
2019-01-29T11:25:33.494Z,3.66
2019-01-29T11:28:35.405Z,3.63
2019-01-29T11:31:37.360Z,3.59
2019-01-29T11:34:39.268Z,3.78
2019-01-29T11:37:41.199Z,3.97
2019-01-29T11:40:43.150Z,4.01
2019-01-29T11:43:45.204Z,4.09
2019-01-29T11:46:47.157Z,4.26
2019-01-29T11:49:49.140Z,4.57
2019-01-29T11:52:51.058Z,4.62
2019-01-29T11:55:53.053Z,4.54
2019-01-29T11:58:55.039Z,4.59
2019-01-29T12:01:57.433Z,4.65
2019-01-29T12:04:59.371Z,4.74
2019-01-29T12:08:01.327Z,4.85
2019-01-29T12:11:03.791Z,5.01
2019-01-29T12:14:05.768Z,5.00
2019-01-29T12:17:07.718Z,4.94
2019-01-29T12:20:13.005Z,5.10
2019-01-29T12:23:15.919Z,5.24
2019-01-29T12:26:17.917Z,5.12
2019-01-29T12:29:19.889Z,5.33
2019-01-29T12:32:22.891Z,5.49
2019-01-29T12:35:24.803Z,5.63
2019-01-29T12:38:27.264Z,5.52
2019-01-29T12:41:29.247Z,5.33
2019-01-29T12:44:31.340Z,5.06
2019-01-29T12:47:33.348Z,4.88
2019-01-29T12:50:36.039Z,4.83
2019-01-29T12:53:37.950Z,4.71
2019-01-29T12:56:40.989Z,4.66
2019-01-29T12:59:42.919Z,4.55
2019-01-29T13:02:44.834Z,4.48
2019-01-29T13:05:46.757Z,4.52
2019-01-29T13:08:48.736Z,4.44
2019-01-29T13:11:50.842Z,4.48
2019-01-29T13:14:52.875Z,4.40
2019-01-29T13:17:55.888Z,4.28
2019-01-29T13:20:57.868Z,4.23
2019-01-29T13:23:59.795Z,4.29
2019-01-29T13:27:01.833Z,4.20
2019-01-29T13:30:16.488Z,4.19
2019-01-29T13:33:18.680Z,4.22
2019-01-29T13:36:20.658Z,4.22
2019-01-29T13:39:23.764Z,4.21
2019-01-29T13:42:25.653Z,4.20
2019-01-29T13:45:27.915Z,4.29
2019-01-29T13:48:31.199Z,4.43
2019-01-29T13:51:34.234Z,4.63
2019-01-29T13:54:36.259Z,4.62
2019-01-29T13:57:38.242Z,4.61
2019-01-29T14:00:40.148Z,4.54
2019-01-29T14:03:42.167Z,4.59
2019-01-29T14:06:44.109Z,4.60
2019-01-29T14:09:46.236Z,4.64
2019-01-29T14:12:48.326Z,4.53
2019-01-29T14:15:52.243Z,4.51
2019-01-29T14:18:54.207Z,4.55
2019-01-29T14:21:56.930Z,4.61
2019-01-29T14:24:58.834Z,4.72
2019-01-29T14:28:00.863Z,4.82
2019-01-29T14:31:03.165Z,4.93
2019-01-29T14:34:05.127Z,5.00
2019-01-29T14:37:07.072Z,5.01
2019-01-29T14:40:15.582Z,5.04
2019-01-29T14:43:33.103Z,5.07
2019-01-29T14:46:35.203Z,5.01
2019-01-29T14:49:37.159Z,4.94
2019-01-29T14:52:39.151Z,4.99
2019-01-29T14:55:41.042Z,5.01
2019-01-29T14:58:42.988Z,5.01
2019-01-29T15:01:45.033Z,5.04
2019-01-29T15:04:47.022Z,5.04
2019-01-29T15:07:49.065Z,5.03
2019-01-29T15:10:51.102Z,5.01
2019-01-29T15:13:53.061Z,5.01
2019-01-29T15:16:57.103Z,4.98
2019-01-29T15:19:59.065Z,4.93
2019-01-29T15:23:01.196Z,4.84
2019-01-29T15:26:03.154Z,4.79
2019-01-29T15:29:05.186Z,4.67
2019-01-29T15:32:07.114Z,4.69
2019-01-29T15:35:09.498Z,4.58
2019-01-29T15:38:11.430Z,4.40
2019-01-29T15:41:13.423Z,4.16
2019-01-29T15:44:15.361Z,3.92
2019-01-29T15:47:17.473Z,3.67
2019-01-29T15:50:27.187Z,3.49
2019-01-29T15:53:29.185Z,3.34
2019-01-29T15:56:31.132Z,3.18
2019-01-29T15:59:33.107Z,3.05
2019-01-29T16:02:35.015Z,2.92
2019-01-29T16:05:41.591Z,2.77
2019-01-29T16:08:43.595Z,2.63
2019-01-29T16:11:45.610Z,2.46
2019-01-29T16:14:47.845Z,2.38
2019-01-29T16:17:50.004Z,2.30
2019-01-29T16:20:51.952Z,2.23
2019-01-29T16:23:53.886Z,2.17
2019-01-29T16:26:55.912Z,2.13
2019-01-29T16:29:57.927Z,2.06
2019-01-29T16:32:59.877Z,1.98
2019-01-29T16:36:03.197Z,1.91
2019-01-29T16:39:06.833Z,1.84
2019-01-29T16:42:08.833Z,1.77
2019-01-29T16:45:14.389Z,1.68
2019-01-29T16:48:16.698Z,1.58
2019-01-29T16:51:18.707Z,1.58
2019-01-29T16:54:22.046Z,1.55
2019-01-29T16:57:31.545Z,1.52
2019-01-29T17:00:34.465Z,1.57
2019-01-29T17:03:36.406Z,1.66
2019-01-29T17:06:39.376Z,1.81
2019-01-29T17:09:43.169Z,1.97
2019-01-29T17:12:45.233Z,2.16
2019-01-29T17:15:47.136Z,2.31
2019-01-29T17:18:50.993Z,2.36
2019-01-29T17:21:53.006Z,2.33
2019-01-29T17:24:54.978Z,2.37
2019-01-29T17:27:56.913Z,2.43
2019-01-29T17:30:58.903Z,2.50
2019-01-29T17:34:00.868Z,2.52
2019-01-29T17:37:02.884Z,2.49
2019-01-29T17:40:10.173Z,2.52
2019-01-29T17:43:12.146Z,2.52
2019-01-29T17:46:14.100Z,2.51
2019-01-29T17:49:16.224Z,2.54
2019-01-29T17:52:18.173Z,2.53
2019-01-29T17:55:20.641Z,2.56
2019-01-29T17:58:22.582Z,2.60
2019-01-29T18:01:24.841Z,2.60
2019-01-29T18:04:26.815Z,2.65
2019-01-29T18:07:32.329Z,2.70
2019-01-29T18:10:34.298Z,2.74
2019-01-29T18:13:37.034Z,2.79
2019-01-29T18:16:41.042Z,2.84
2019-01-29T18:19:46.500Z,2.85
2019-01-29T18:22:50.258Z,2.75
2019-01-29T18:25:53.686Z,2.63
2019-01-29T18:28:57.564Z,2.69
2019-01-29T18:31:59.792Z,2.72
2019-01-29T18:35:01.856Z,2.73
2019-01-29T18:38:04.972Z,2.76
2019-01-29T18:41:08.013Z,2.76
2019-01-29T18:44:14.159Z,2.86
2019-01-29T18:47:17.368Z,2.87
2019-01-29T18:50:23.240Z,2.88
2019-01-29T18:53:28.772Z,2.84
2019-01-29T18:56:30.681Z,2.78
2019-01-29T18:59:32.642Z,2.72
2019-01-29T19:02:34.614Z,2.52
2019-01-29T19:05:39.247Z,2.48
2019-01-29T19:08:41.208Z,2.52
2019-01-29T19:11:44.411Z,2.48
2019-01-29T19:14:47.013Z,2.47
2019-01-29T19:17:50.860Z,2.44
2019-01-29T19:20:55.077Z,2.46
2019-01-29T19:23:57.095Z,2.42
2019-01-29T19:26:59.060Z,2.36
2019-01-29T19:30:01.346Z,2.29
2019-01-29T19:33:03.253Z,2.24
2019-01-29T19:36:07.022Z,2.14
2019-01-29T19:39:08.991Z,2.00
2019-01-29T19:42:10.952Z,1.83
2019-01-29T19:45:21.654Z,1.77
2019-01-29T19:48:23.656Z,1.74
2019-01-29T19:51:29.438Z,1.75
2019-01-29T19:54:31.434Z,1.73
2019-01-29T19:57:35.152Z,1.66
2019-01-29T20:00:40.089Z,1.63
2019-01-29T20:03:42.502Z,1.55
2019-01-29T20:06:45.679Z,1.54
2019-01-29T20:09:48.986Z,1.63
2019-01-29T20:12:52.919Z,1.69
2019-01-29T20:15:56.492Z,1.82
2019-01-29T20:19:02.653Z,1.95
2019-01-29T20:22:06.535Z,2.13
2019-01-29T20:25:12.543Z,2.29
2019-01-29T20:28:16.351Z,2.41
2019-01-29T20:31:21.523Z,2.45
2019-01-29T20:34:23.499Z,2.52
2019-01-29T20:37:27.638Z,2.56
2019-01-29T20:40:36.943Z,2.51
2019-01-29T20:43:40.764Z,2.50
2019-01-29T20:46:49.532Z,2.57
2019-01-29T20:49:51.570Z,2.61
2019-01-29T20:52:53.680Z,2.57
2019-01-29T20:55:56.213Z,2.53
2019-01-29T20:59:07.533Z,2.51
2019-01-29T21:02:11.409Z,2.59
2019-01-29T21:05:15.140Z,2.62
2019-01-29T21:08:17.289Z,2.57
2019-01-29T21:11:21.090Z,2.46
2019-01-29T21:14:28.204Z,2.33
2019-01-29T21:17:30.166Z,2.28
2019-01-29T21:20:32.160Z,2.24
2019-01-29T21:23:34.207Z,2.15
2019-01-29T21:26:37.347Z,2.08
2019-01-29T21:29:39.371Z,2.04
2019-01-29T21:32:41.318Z,1.97
2019-01-29T21:35:43.281Z,1.83
2019-01-29T21:38:46.567Z,1.78
2019-01-29T21:41:48.479Z,1.61
2019-01-29T21:44:50.493Z,1.44
2019-01-29T21:47:57.515Z,1.42
2019-01-29T21:51:00.127Z,1.32
2019-01-29T21:54:03.570Z,1.27
2019-01-29T21:57:08.508Z,1.20
2019-01-29T22:00:26.333Z,1.16
2019-01-29T22:03:28.313Z,1.05
2019-01-29T22:06:30.290Z,0.90
2019-01-29T22:09:32.202Z,0.84
2019-01-29T22:12:34.154Z,0.79
2019-01-29T22:15:36.057Z,0.70
2019-01-29T22:18:38.079Z,0.45
2019-01-29T22:21:40.043Z,0.27
2019-01-29T22:24:42.378Z,0.15
2019-01-29T22:27:44.309Z,0.02
2019-01-29T22:30:46.317Z,-0.11
2019-01-29T22:33:48.285Z,-0.21
2019-01-29T22:36:50.287Z,-0.28
2019-01-29T22:39:52.258Z,-0.24
2019-01-29T22:42:54.845Z,-0.23
2019-01-29T22:45:56.756Z,-0.29
2019-01-29T22:48:58.740Z,-0.33
2019-01-29T22:52:00.676Z,-0.39
2019-01-29T22:55:05.866Z,-0.41
2019-01-29T22:58:07.958Z,-0.46
2019-01-29T23:01:16.629Z,-0.53
2019-01-29T23:04:18.621Z,-0.56
2019-01-29T23:07:20.541Z,-0.65
2019-01-29T23:10:22.590Z,-0.68
2019-01-29T23:13:24.507Z,-0.70
2019-01-29T23:16:26.461Z,-0.72
2019-01-29T23:19:28.377Z,-0.72
2019-01-29T23:22:31.458Z,-0.69
2019-01-29T23:25:33.433Z,-0.67
2019-01-29T23:28:35.402Z,-0.65
2019-01-29T23:31:37.347Z,-0.69
2019-01-29T23:34:39.396Z,-0.63
2019-01-29T23:37:43.240Z,-0.67
2019-01-29T23:40:45.230Z,-0.70
2019-01-29T23:43:47.239Z,-0.66
2019-01-29T23:46:50.267Z,-0.65
2019-01-29T23:49:52.216Z,-0.66
2019-01-29T23:52:54.158Z,-0.70
2019-01-29T23:55:56.262Z,-0.81
2019-01-29T23:58:58.178Z,-0.86
